createdAt,value
2022-08-17T00:00:40.543Z,17.56
2022-08-17T00:05:48.667Z,17.47
2022-08-17T00:10:56.633Z,17.28
2022-08-17T00:16:04.699Z,17.1
2022-08-17T00:21:11.239Z,16.83
2022-08-17T00:26:19.598Z,16.78
2022-08-17T00:31:28.033Z,16.96
2022-08-17T00:36:36.927Z,17.06
2022-08-17T00:41:44.549Z,17.21
2022-08-17T00:46:51.738Z,17.18
2022-08-17T00:51:59.442Z,17.1
2022-08-17T00:57:07.047Z,17.07
2022-08-17T01:02:15.886Z,17.17
2022-08-17T01:07:23.435Z,17.06
2022-08-17T01:12:31.493Z,16.98
2022-08-17T01:17:38.814Z,17.19
2022-08-17T01:22:47.762Z,17.2
2022-08-17T01:37:06.309Z,16.96
2022-08-17T01:42:12.797Z,16.68
2022-08-17T01:47:22.330Z,16.47
2022-08-17T01:52:28.383Z,16.32
2022-08-17T01:57:36.216Z,16.23
2022-08-17T02:02:43.432Z,16.06
2022-08-17T02:07:50.570Z,15.94
2022-08-17T02:12:58.784Z,15.8
2022-08-17T02:18:06.306Z,15.75
2022-08-17T02:23:13.499Z,15.75
2022-08-17T02:28:21.129Z,15.66
2022-08-17T02:33:27.903Z,15.52
2022-08-17T02:38:36.896Z,15.39
2022-08-17T02:43:44.237Z,15.19
2022-08-17T02:48:52.338Z,15.05
2022-08-17T02:53:59.965Z,14.86
2022-08-17T02:59:07.514Z,14.85
2022-08-17T03:04:14.359Z,14.65
2022-08-17T03:09:22.323Z,14.6
2022-08-17T03:14:30.273Z,14.54
2022-08-17T03:19:37.322Z,14.52
2022-08-17T03:24:44.632Z,14.46
2022-08-17T03:29:52.212Z,14.66
2022-08-17T03:35:00.166Z,14.58
2022-08-17T03:40:07.290Z,14.46
2022-08-17T03:45:14.486Z,14.36
2022-08-17T03:50:22.870Z,14.34
2022-08-17T03:55:31.018Z,14.26
2022-08-17T04:00:37.334Z,14.13
2022-08-17T04:05:45.174Z,14.16
2022-08-17T04:10:54.044Z,14.28
2022-08-17T04:16:02.316Z,14.29
2022-08-17T04:21:10.133Z,14.42
2022-08-17T04:26:17.997Z,14.74
2022-08-17T04:31:25.636Z,16.17
2022-08-17T04:36:34.705Z,18.93
2022-08-17T04:41:44.263Z,21.99
2022-08-17T04:46:51.690Z,24.57
2022-08-17T04:52:07.262Z,26.42
2022-08-17T04:57:15.385Z,27.28
2022-08-17T05:02:22.315Z,27.7
2022-08-17T05:07:29.487Z,27.85
2022-08-17T05:12:37.384Z,27.96
2022-08-17T05:17:44.770Z,27.65
2022-08-17T05:22:52.496Z,28.94
2022-08-17T05:27:59.611Z,29.68
2022-08-17T05:33:07.868Z,29.16
2022-08-17T05:38:15.859Z,29.02
2022-08-17T05:43:24.038Z,30.1
2022-08-17T05:48:38.085Z,30.29
2022-08-17T05:53:45.853Z,30.29
2022-08-17T05:58:54.066Z,31.32
2022-08-17T06:04:01.888Z,31.98
2022-08-17T06:09:09.188Z,32.18
2022-08-17T06:14:16.983Z,31.74
2022-08-17T06:19:23.934Z,31.57
2022-08-17T06:24:31.527Z,30.54
2022-08-17T06:29:38.146Z,29.19
2022-08-17T06:34:45.750Z,28.73
2022-08-17T06:39:53.781Z,28.02
2022-08-17T06:45:00.393Z,27.78
2022-08-17T06:50:07.617Z,27.8
2022-08-17T06:55:15.280Z,27.86
2022-08-17T07:00:22.882Z,27.72
2022-08-17T07:05:31.092Z,27.24
2022-08-17T07:15:40.967Z,27.66
2022-08-17T07:16:43.775Z,27.7
2022-08-17T07:21:49.871Z,27.17
2022-08-17T07:26:57.575Z,27.58
2022-08-17T07:32:06.525Z,27.67
2022-08-17T07:37:13.841Z,27.85
2022-08-17T07:42:22.813Z,27.58
2022-08-17T07:47:30.172Z,27.6
2022-08-17T07:52:37.933Z,28.25
2022-08-17T07:57:45.003Z,28.35
2022-08-17T08:02:53.338Z,28.79
2022-08-17T08:08:02.948Z,28.9
2022-08-17T08:13:11.184Z,29.02
2022-08-17T08:23:47.713Z,29.34
2022-08-17T08:28:55.834Z,29.51
2022-08-17T08:34:03.451Z,29.78
2022-08-17T08:39:12.735Z,29.96
2022-08-17T08:44:20.652Z,30.55
2022-08-17T08:49:28.880Z,30.99
2022-08-17T08:54:37.287Z,31.19
2022-08-17T08:59:45.821Z,31.6
2022-08-17T09:04:54.241Z,31.6
2022-08-17T09:10:01.901Z,31.58
2022-08-17T09:15:09.866Z,31.6
2022-08-17T09:20:16.893Z,31.81
2022-08-17T09:25:24.358Z,31.97
2022-08-17T09:30:32.110Z,32.14
2022-08-17T09:35:40.387Z,32.56
2022-08-17T09:40:48.196Z,32.62
2022-08-17T09:45:56.614Z,32.7
2022-08-17T09:51:04.799Z,32.78
2022-08-17T09:56:12.412Z,33.01
2022-08-17T10:01:20.287Z,33.09
2022-08-17T10:06:27.415Z,33.1
2022-08-17T10:11:35.583Z,33.45
2022-08-17T10:16:43.710Z,33.46
2022-08-17T10:21:52.135Z,33.47
2022-08-17T10:26:59.014Z,33.82
2022-08-17T10:32:06.141Z,34.01
2022-08-17T10:37:13.811Z,34.34
2022-08-17T10:42:22.161Z,34.4
2022-08-17T10:47:29.250Z,34.4
2022-08-17T10:52:38.076Z,34.59
2022-08-17T10:57:45.593Z,35.22
2022-08-17T11:02:54.935Z,35.25
2022-08-17T11:08:02.168Z,35.45
2022-08-17T11:13:09.739Z,35.66
2022-08-17T11:18:18.363Z,35.9
2022-08-17T11:23:26.301Z,36.02
2022-08-17T11:28:33.537Z,36.08
2022-08-17T11:33:41.568Z,35.83
2022-08-17T11:38:50.331Z,35.72
2022-08-17T11:43:58.295Z,35.69
2022-08-17T11:49:06.006Z,35.58
2022-08-17T11:54:14.619Z,35.64
2022-08-17T11:59:27.809Z,35.61
2022-08-17T12:04:34.408Z,35.56
2022-08-17T12:09:42.276Z,35.66
2022-08-17T12:14:48.690Z,35.86
2022-08-17T12:19:55.413Z,35.96
2022-08-17T12:25:02.496Z,35.9
2022-08-17T12:30:10.808Z,36.34
2022-08-17T12:35:17.677Z,36.2
2022-08-17T12:40:24.540Z,36.46
2022-08-17T12:45:32.061Z,36.58
2022-08-17T12:50:39.825Z,36.35
2022-08-17T12:55:46.261Z,36.54
2022-08-17T13:00:54.939Z,36.65
2022-08-17T13:06:01.863Z,36.7
2022-08-17T13:11:09.053Z,36.76
2022-08-17T13:16:16.928Z,36.56
2022-08-17T13:21:25.254Z,36.56
2022-08-17T13:26:33.547Z,37.19
2022-08-17T13:31:41.800Z,37.83
2022-08-17T13:36:49.633Z,37.43
2022-08-17T13:41:56.042Z,37.21
2022-08-17T13:47:03.920Z,37.65
2022-08-17T13:52:12.521Z,37.74
2022-08-17T13:57:20.246Z,37.66
2022-08-17T14:02:27.451Z,38.12
2022-08-17T14:07:34.327Z,37.81
2022-08-17T14:12:42.832Z,37.17
2022-08-17T14:17:50.533Z,37.48
2022-08-17T14:22:58.495Z,37.47
2022-08-17T14:28:05.352Z,36.81
2022-08-17T14:33:13.353Z,35.92
2022-08-17T14:38:22.123Z,36.6
2022-08-17T14:43:29.497Z,37.18
2022-08-17T14:48:36.744Z,36.36
2022-08-17T14:53:45.046Z,36.53
2022-08-17T14:58:52.778Z,36.22
2022-08-17T15:04:04.789Z,35.69
2022-08-17T15:09:12.506Z,35.22
2022-08-17T15:14:19.735Z,34.88
2022-08-17T15:19:27.951Z,35.46
2022-08-17T15:24:34.778Z,35.85
2022-08-17T15:29:42.722Z,35.08
2022-08-17T15:34:51.028Z,34.79
2022-08-17T15:39:58.925Z,34.79
2022-08-17T15:45:06.760Z,34.06
2022-08-17T15:50:19.662Z,34.21
2022-08-17T15:55:27.193Z,34.42
2022-08-17T16:00:34.566Z,34.47
2022-08-17T16:05:41.053Z,34.43
2022-08-17T16:10:49.852Z,34.01
2022-08-17T16:15:56.447Z,33.58
2022-08-17T16:21:04.454Z,32.79
2022-08-17T16:26:12.627Z,32.33
2022-08-17T16:31:21.272Z,32.08
2022-08-17T16:36:28.911Z,32.02
2022-08-17T16:41:37.707Z,32.01
2022-08-17T16:46:44.341Z,31.88
2022-08-17T16:51:52.542Z,31.55
2022-08-17T16:57:00.636Z,31.08
2022-08-17T17:02:08.561Z,30.71
2022-08-17T17:07:15.866Z,30.48
2022-08-17T17:12:23.684Z,30.4
2022-08-17T17:17:31.681Z,30.22
2022-08-17T17:22:39.507Z,30.12
2022-08-17T17:27:46.861Z,29.97
2022-08-17T17:32:54.657Z,29.81
2022-08-17T17:38:02.557Z,29.62
2022-08-17T17:43:09.700Z,29.29
2022-08-17T17:48:16.985Z,28.65
2022-08-17T17:53:25.041Z,27.86
2022-08-17T17:58:32.510Z,27.54
2022-08-17T18:03:40.182Z,27.18
2022-08-17T18:08:47.560Z,26.6
2022-08-17T18:13:55.690Z,25.84
2022-08-17T18:19:03.295Z,25.16
2022-08-17T18:24:10.460Z,24.64
2022-08-17T18:29:17.749Z,24.29
2022-08-17T18:34:24.588Z,23.96
2022-08-17T18:39:33.281Z,23.66
2022-08-17T18:44:40.701Z,23.46
2022-08-17T18:49:48.193Z,23.34
2022-08-17T18:54:56.721Z,22.9
2022-08-17T19:00:10.785Z,22.64
2022-08-17T19:05:17.774Z,22.46
2022-08-17T19:10:24.895Z,22.29
2022-08-17T19:15:31.446Z,22.02
2022-08-17T19:20:38.661Z,21.92
2022-08-17T19:25:46.897Z,21.79
2022-08-17T19:30:53.696Z,21.54
2022-08-17T19:36:01.442Z,21.34
2022-08-17T19:41:10.200Z,21.25
2022-08-17T19:46:17.407Z,21.1
2022-08-17T19:51:26.760Z,20.8
2022-08-17T19:56:34.184Z,20.6
2022-08-17T20:01:42.617Z,20.43
2022-08-17T20:06:52.556Z,20.44
2022-08-17T20:12:00.184Z,20.36
2022-08-17T20:17:06.813Z,20.23
2022-08-17T20:22:14.012Z,20.14
2022-08-17T20:27:22.693Z,19.88
2022-08-17T20:32:30.617Z,19.84
2022-08-17T20:37:37.603Z,19.75
2022-08-17T20:42:45.050Z,19.86
2022-08-17T20:47:53.105Z,19.96
2022-08-17T20:53:01.053Z,20.22
2022-08-17T20:58:09.312Z,20.36
2022-08-17T21:03:16.092Z,20.46
2022-08-17T21:08:23.894Z,20.48
2022-08-17T21:13:31.769Z,20.36
2022-08-17T21:18:39.404Z,20.17
2022-08-17T21:23:47.486Z,19.88
2022-08-17T21:28:54.650Z,19.58
2022-08-17T21:34:01.855Z,19.3
2022-08-17T21:39:09.926Z,19.14
2022-08-17T21:44:19.915Z,19.08
2022-08-17T21:49:26.653Z,19.06
2022-08-17T21:54:33.860Z,18.98
2022-08-17T21:59:41.705Z,18.74
2022-08-17T22:04:49.994Z,18.64
2022-08-17T22:09:58.172Z,18.68
2022-08-17T22:15:05.957Z,18.75
2022-08-17T22:20:14.008Z,18.75
2022-08-17T22:25:22.542Z,18.65
2022-08-17T22:30:29.372Z,18.52
2022-08-17T22:35:37.021Z,18.58
2022-08-17T22:40:45.416Z,18.67
2022-08-17T22:45:53.737Z,18.48
2022-08-17T22:51:01.939Z,18.4
2022-08-17T22:56:09.218Z,18.29
2022-08-17T23:01:16.416Z,18.44
2022-08-17T23:06:23.413Z,18.3
2022-08-17T23:11:31.991Z,18.07
2022-08-17T23:16:40.578Z,17.9
2022-08-17T23:21:48.079Z,17.82
2022-08-17T23:26:55.854Z,17.8
2022-08-17T23:32:04.261Z,17.84
2022-08-17T23:37:11.341Z,17.88
2022-08-17T23:42:19.708Z,17.82
2022-08-17T23:47:27.821Z,17.84
2022-08-17T23:52:35.855Z,17.86
2022-08-17T23:57:44.134Z,17.84
